sensor_id;sensor_type;location;lat;lon;timestamp;temperature;humidity
3816;DHT22;1923;48.154;11.536;2024-01-15T00:00:39;1.00;99.90
3816;DHT22;1923;48.154;11.536;2024-01-15T00:03:08;1.00;99.90
3816;DHT22;1923;48.154;11.536;2024-01-15T00:05:36;1.10;99.90
3816;DHT22;1923;48.154;11.536;2024-01-15T00:08:06;1.10;99.90
3816;DHT22;1923;48.154;11.536;2024-01-15T00:10:34;1.10;99.90
3816;DHT22;1923;48.154;11.536;2024-01-15T00:13:02;1.10;99.90
3816;DHT22;1923;48.154;11.536;2024-01-15T00:15:30;1.10;99.90
3816;DHT22;1923;48.154;11.536;2024-01-15T00:17:58;1.20;99.90
3816;DHT22;1923;48.154;11.536;2024-01-15T00:20:26;1.10;99.90
3816;DHT22;1923;48.154;11.536;2024-01-15T00:22:57;1.20;99.90
3816;DHT22;1923;48.154;11.536;2024-01-15T00:25:26;1.10;99.90
3816;DHT22;1923;48.154;11.536;2024-01-15T00:27:54;1.10;99.90
3816;DHT22;1923;48.154;11.536;2024-01-15T00:30:22;1.00;99.90
3816;DHT22;1923;48.154;11.536;2024-01-15T00:32:50;1.00;99.90
3816;DHT22;1923;48.154;11.536;2024-01-15T00:35:18;0.90;99.90
3816;DHT22;1923;48.154;11.536;2024-01-15T00:37:46;1.00;99.90
3816;DHT22;1923;48.154;11.536;2024-01-15T00:40:15;1.00;99.90
3816;DHT22;1923;48.154;11.536;2024-01-15T00:42:44;1.10;99.90
3816;DHT22;1923;48.154;11.536;2024-01-15T00:45:12;1.00;99.90
3816;DHT22;1923;48.154;11.536;2024-01-15T00:47:40;1.00;99.90
3816;DHT22;1923;48.154;11.536;2024-01-15T00:50:09;1.10;99.90
3816;DHT22;1923;48.154;11.536;2024-01-15T00:52:37;1.10;99.90
3816;DHT22;1923;48.154;11.536;2024-01-15T00:55:06;1.10;99.90
3816;DHT22;1923;48.154;11.536;2024-01-15T00:57:34;1.00;99.90
3816;DHT22;1923;48.154;11.536;2024-01-15T01:00:05;1.00;99.90
3816;DHT22;1923;48.154;11.536;2024-01-15T01:02:33;1.00;99.90
3816;DHT22;1923;48.154;11.536;2024-01-15T01:05:01;1.00;99.90
3816;DHT22;1923;48.154;11.536;2024-01-15T01:07:30;1.00;99.90
3816;DHT22;1923;48.154;11.536;2024-01-15T01:09:58;0.80;99.90
3816;DHT22;1923;48.154;11.536;2024-01-15T01:12:26;0.70;99.90
3816;DHT22;1923;48.154;11.536;2024-01-15T01:14:54;0.60;99.90
3816;DHT22;1923;48.154;11.536;2024-01-15T01:17:23;0.50;99.90
3816;DHT22;1923;48.154;11.536;2024-01-15T01:19:52;0.40;99.90
3816;DHT22;1923;48.154;11.536;2024-01-15T01:22:20;0.30;99.90
3816;DHT22;1923;48.154;11.536;2024-01-15T01:24:48;0.30;99.90
3816;DHT22;1923;48.154;11.536;2024-01-15T01:27:16;0.20;99.90
3816;DHT22;1923;48.154;11.536;2024-01-15T01:29:44;0.10;99.90
3816;DHT22;1923;48.154;11.536;2024-01-15T01:32:12;0.10;99.90
3816;DHT22;1923;48.154;11.536;2024-01-15T01:34:41;0.10;99.90
3816;DHT22;1923;48.154;11.536;2024-01-15T01:37:10;0.00;99.90
3816;DHT22;1923;48.154;11.536;2024-01-15T01:39:40;0.00;99.90
3816;DHT22;1923;48.154;11.536;2024-01-15T01:42:08;-0.10;99.90
3816;DHT22;1923;48.154;11.536;2024-01-15T01:44:36;0.00;99.90
3816;DHT22;1923;48.154;11.536;2024-01-15T01:47:07;-0.10;99.90
3816;DHT22;1923;48.154;11.536;2024-01-15T01:49:35;-0.10;99.90
3816;DHT22;1923;48.154;11.536;2024-01-15T01:52:06;-0.10;99.90
3816;DHT22;1923;48.154;11.536;2024-01-15T01:54:35;-0.20;99.90
3816;DHT22;1923;48.154;11.536;2024-01-15T01:57:05;-0.10;99.90
3816;DHT22;1923;48.154;11.536;2024-01-15T01:59:34;-0.10;99.90
3816;DHT22;1923;48.154;11.536;2024-01-15T02:02:04;0.00;99.90
3816;DHT22;1923;48.154;11.536;2024-01-15T02:04:32;-0.10;99.90
3816;DHT22;1923;48.154;11.536;2024-01-15T02:07:02;-0.10;99.90
3816;DHT22;1923;48.154;11.536;2024-01-15T02:09:32;0.00;99.90
3816;DHT22;1923;48.154;11.536;2024-01-15T02:12:00;0.00;99.90
3816;DHT22;1923;48.154;11.536;2024-01-15T02:14:29;-0.10;99.90
3816;DHT22;1923;48.154;11.536;2024-01-15T02:16:57;-0.10;99.90
3816;DHT22;1923;48.154;11.536;2024-01-15T02:19:25;-0.10;99.90
3816;DHT22;1923;48.154;11.536;2024-01-15T02:21:53;-0.10;99.90
3816;DHT22;1923;48.154;11.536;2024-01-15T02:24:23;-0.10;99.90
3816;DHT22;1923;48.154;11.536;2024-01-15T02:26:51;-0.10;99.90
3816;DHT22;1923;48.154;11.536;2024-01-15T02:29:19;-0.10;99.90
3816;DHT22;1923;48.154;11.536;2024-01-15T02:31:47;-0.10;99.90
3816;DHT22;1923;48.154;11.536;2024-01-15T02:34:15;-0.10;99.90
3816;DHT22;1923;48.154;11.536;2024-01-15T02:36:44;-0.20;99.90
3816;DHT22;1923;48.154;11.536;2024-01-15T02:39:12;-0.30;99.90
3816;DHT22;1923;48.154;11.536;2024-01-15T02:41:41;-0.20;99.90
3816;DHT22;1923;48.154;11.536;2024-01-15T02:44:10;-0.20;99.90
3816;DHT22;1923;48.154;11.536;2024-01-15T02:46:38;-0.20;99.90
3816;DHT22;1923;48.154;11.536;2024-01-15T02:49:06;-0.30;99.90
3816;DHT22;1923;48.154;11.536;2024-01-15T02:51:34;-0.20;99.90
3816;DHT22;1923;48.154;11.536;2024-01-15T02:54:02;-0.10;99.90
3816;DHT22;1923;48.154;11.536;2024-01-15T02:56:30;-0.10;99.90
3816;DHT22;1923;48.154;11.536;2024-01-15T02:58:59;-0.20;99.90
3816;DHT22;1923;48.154;11.536;2024-01-15T03:01:27;0.00;99.90
3816;DHT22;1923;48.154;11.536;2024-01-15T03:03:55;-0.10;99.90
3816;DHT22;1923;48.154;11.536;2024-01-15T03:06:24;0.00;99.90
3816;DHT22;1923;48.154;11.536;2024-01-15T03:08:52;0.00;99.90
3816;DHT22;1923;48.154;11.536;2024-01-15T03:11:20;0.00;99.90
3816;DHT22;1923;48.154;11.536;2024-01-15T03:13:48;0.00;99.90
3816;DHT22;1923;48.154;11.536;2024-01-15T03:16:18;0.10;99.90
3816;DHT22;1923;48.154;11.536;2024-01-15T03:18:47;0.10;99.90
3816;DHT22;1923;48.154;11.536;2024-01-15T03:21:15;0.20;99.90
3816;DHT22;1923;48.154;11.536;2024-01-15T03:23:43;0.20;99.90
3816;DHT22;1923;48.154;11.536;2024-01-15T03:26:11;0.20;99.90
3816;DHT22;1923;48.154;11.536;2024-01-15T03:28:39;0.30;99.90
3816;DHT22;1923;48.154;11.536;2024-01-15T03:31:07;0.30;99.90
3816;DHT22;1923;48.154;11.536;2024-01-15T03:33:37;0.20;99.90
3816;DHT22;1923;48.154;11.536;2024-01-15T03:36:06;0.20;99.90
3816;DHT22;1923;48.154;11.536;2024-01-15T03:38:39;0.20;99.90
3816;DHT22;1923;48.154;11.536;2024-01-15T03:41:07;0.20;99.90
3816;DHT22;1923;48.154;11.536;2024-01-15T03:43:35;0.20;99.90
3816;DHT22;1923;48.154;11.536;2024-01-15T03:46:03;0.20;99.90
3816;DHT22;1923;48.154;11.536;2024-01-15T03:48:32;0.30;99.90
3816;DHT22;1923;48.154;11.536;2024-01-15T03:51:03;0.30;99.90
3816;DHT22;1923;48.154;11.536;2024-01-15T03:53:31;0.20;99.90
3816;DHT22;1923;48.154;11.536;2024-01-15T03:55:59;0.30;99.90
3816;DHT22;1923;48.154;11.536;2024-01-15T03:58:27;0.20;99.90
3816;DHT22;1923;48.154;11.536;2024-01-15T04:00:55;0.30;99.90
3816;DHT22;1923;48.154;11.536;2024-01-15T04:03:23;0.30;99.90
3816;DHT22;1923;48.154;11.536;2024-01-15T04:05:51;0.30;99.90
3816;DHT22;1923;48.154;11.536;2024-01-15T04:08:21;0.30;99.90
3816;DHT22;1923;48.154;11.536;2024-01-15T04:10:49;0.30;99.90
3816;DHT22;1923;48.154;11.536;2024-01-15T04:13:17;0.30;99.90
3816;DHT22;1923;48.154;11.536;2024-01-15T04:15:45;0.20;99.90
3816;DHT22;1923;48.154;11.536;2024-01-15T04:18:13;0.30;99.90
3816;DHT22;1923;48.154;11.536;2024-01-15T04:20:41;0.30;99.90
3816;DHT22;1923;48.154;11.536;2024-01-15T04:23:09;0.40;99.90
3816;DHT22;1923;48.154;11.536;2024-01-15T04:25:39;0.40;99.90
3816;DHT22;1923;48.154;11.536;2024-01-15T04:28:09;0.40;99.90
3816;DHT22;1923;48.154;11.536;2024-01-15T04:30:37;0.40;99.90
3816;DHT22;1923;48.154;11.536;2024-01-15T04:33:06;0.50;99.90
3816;DHT22;1923;48.154;11.536;2024-01-15T04:35:34;0.50;99.90
3816;DHT22;1923;48.154;11.536;2024-01-15T04:38:02;0.40;99.90
3816;DHT22;1923;48.154;11.536;2024-01-15T04:40:30;0.40;99.90
3816;DHT22;1923;48.154;11.536;2024-01-15T04:42:59;0.40;99.90
3816;DHT22;1923;48.154;11.536;2024-01-15T04:45:27;0.50;99.90
3816;DHT22;1923;48.154;11.536;2024-01-15T04:47:56;0.60;99.90
3816;DHT22;1923;48.154;11.536;2024-01-15T04:50:25;0.50;99.90
3816;DHT22;1923;48.154;11.536;2024-01-15T04:52:53;0.50;99.90
3816;DHT22;1923;48.154;11.536;2024-01-15T04:55:21;0.50;99.90
3816;DHT22;1923;48.154;11.536;2024-01-15T04:57:49;0.50;99.90
3816;DHT22;1923;48.154;11.536;2024-01-15T05:00:18;0.40;99.90
3816;DHT22;1923;48.154;11.536;2024-01-15T05:02:46;0.40;99.90
3816;DHT22;1923;48.154;11.536;2024-01-15T05:05:15;0.50;99.90
3816;DHT22;1923;48.154;11.536;2024-01-15T05:07:43;0.50;99.90
3816;DHT22;1923;48.154;11.536;2024-01-15T05:10:11;0.50;99.90
3816;DHT22;1923;48.154;11.536;2024-01-15T05:12:39;0.50;99.90
3816;DHT22;1923;48.154;11.536;2024-01-15T05:15:07;0.50;99.90
3816;DHT22;1923;48.154;11.536;2024-01-15T05:17:38;0.50;99.90
3816;DHT22;1923;48.154;11.536;2024-01-15T05:20:06;0.50;99.90
3816;DHT22;1923;48.154;11.536;2024-01-15T05:22:35;0.60;99.90
3816;DHT22;1923;48.154;11.536;2024-01-15T05:25:03;0.60;99.90
3816;DHT22;1923;48.154;11.536;2024-01-15T05:27:32;0.70;99.90
3816;DHT22;1923;48.154;11.536;2024-01-15T05:30:00;0.60;99.90
3816;DHT22;1923;48.154;11.536;2024-01-15T05:32:28;0.60;99.90
3816;DHT22;1923;48.154;11.536;2024-01-15T05:34:58;0.50;99.90
3816;DHT22;1923;48.154;11.536;2024-01-15T05:37:26;0.60;99.90
3816;DHT22;1923;48.154;11.536;2024-01-15T05:39:54;0.50;99.90
3816;DHT22;1923;48.154;11.536;2024-01-15T05:42:22;0.60;99.90
3816;DHT22;1923;48.154;11.536;2024-01-15T05:44:50;0.60;99.90
3816;DHT22;1923;48.154;11.536;2024-01-15T05:47:18;0.60;99.90
3816;DHT22;1923;48.154;11.536;2024-01-15T05:49:46;0.60;99.90
3816;DHT22;1923;48.154;11.536;2024-01-15T05:52:16;0.50;99.90
3816;DHT22;1923;48.154;11.536;2024-01-15T05:54:44;0.50;99.90
3816;DHT22;1923;48.154;11.536;2024-01-15T05:57:12;0.60;99.90
3816;DHT22;1923;48.154;11.536;2024-01-15T05:59:40;0.60;99.90
3816;DHT22;1923;48.154;11.536;2024-01-15T06:02:08;0.50;99.90
3816;DHT22;1923;48.154;11.536;2024-01-15T06:04:36;0.60;99.90
3816;DHT22;1923;48.154;11.536;2024-01-15T06:07:04;0.60;99.90
3816;DHT22;1923;48.154;11.536;2024-01-15T06:09:34;0.60;99.90
3816;DHT22;1923;48.154;11.536;2024-01-15T06:12:02;0.60;99.90
3816;DHT22;1923;48.154;11.536;2024-01-15T06:14:30;0.60;99.90
3816;DHT22;1923;48.154;11.536;2024-01-15T06:16:58;0.60;99.90
3816;DHT22;1923;48.154;11.536;2024-01-15T06:19:27;0.60;99.90
3816;DHT22;1923;48.154;11.536;2024-01-15T06:21:55;0.60;99.90
3816;DHT22;1923;48.154;11.536;2024-01-15T06:24:23;0.60;99.90
3816;DHT22;1923;48.154;11.536;2024-01-15T06:26:52;0.60;99.90
3816;DHT22;1923;48.154;11.536;2024-01-15T06:29:20;0.70;99.90
3816;DHT22;1923;48.154;11.536;2024-01-15T06:31:48;0.60;99.90
3816;DHT22;1923;48.154;11.536;2024-01-15T06:34:18;0.70;99.90
3816;DHT22;1923;48.154;11.536;2024-01-15T06:36:46;0.70;99.90
3816;DHT22;1923;48.154;11.536;2024-01-15T06:39:14;0.70;99.90
3816;DHT22;1923;48.154;11.536;2024-01-15T06:41:42;0.70;99.90
3816;DHT22;1923;48.154;11.536;2024-01-15T06:44:12;0.70;99.90
3816;DHT22;1923;48.154;11.536;2024-01-15T06:46:42;0.70;99.90
3816;DHT22;1923;48.154;11.536;2024-01-15T06:49:11;0.70;99.90
3816;DHT22;1923;48.154;11.536;2024-01-15T06:51:39;0.80;99.90
3816;DHT22;1923;48.154;11.536;2024-01-15T06:54:08;0.80;99.90
3816;DHT22;1923;48.154;11.536;2024-01-15T06:56:36;0.80;99.90
3816;DHT22;1923;48.154;11.536;2024-01-15T06:59:04;0.80;99.90
3816;DHT22;1923;48.154;11.536;2024-01-15T07:01:34;0.80;99.90
3816;DHT22;1923;48.154;11.536;2024-01-15T07:04:02;0.80;99.90
3816;DHT22;1923;48.154;11.536;2024-01-15T07:06:30;0.80;99.90
3816;DHT22;1923;48.154;11.536;2024-01-15T07:08:58;0.90;99.90
3816;DHT22;1923;48.154;11.536;2024-01-15T07:11:26;0.90;99.90
3816;DHT22;1923;48.154;11.536;2024-01-15T07:13:54;0.90;99.90
3816;DHT22;1923;48.154;11.536;2024-01-15T07:16:22;0.90;99.90
3816;DHT22;1923;48.154;11.536;2024-01-15T07:19:05;0.90;99.90
3816;DHT22;1923;48.154;11.536;2024-01-15T07:21:33;0.90;99.90
3816;DHT22;1923;48.154;11.536;2024-01-15T07:24:01;1.00;99.90
3816;DHT22;1923;48.154;11.536;2024-01-15T07:26:30;1.00;99.90
3816;DHT22;1923;48.154;11.536;2024-01-15T07:28:58;0.90;99.90
3816;DHT22;1923;48.154;11.536;2024-01-15T07:31:27;0.90;99.90
3816;DHT22;1923;48.154;11.536;2024-01-15T07:33:55;1.00;99.90
3816;DHT22;1923;48.154;11.536;2024-01-15T07:36:25;1.00;99.90
3816;DHT22;1923;48.154;11.536;2024-01-15T07:38:53;0.90;99.90
3816;DHT22;1923;48.154;11.536;2024-01-15T07:41:21;1.00;99.90
3816;DHT22;1923;48.154;11.536;2024-01-15T07:43:50;1.10;99.90
3816;DHT22;1923;48.154;11.536;2024-01-15T07:46:18;1.10;99.90
3816;DHT22;1923;48.154;11.536;2024-01-15T07:48:46;1.10;99.90
3816;DHT22;1923;48.154;11.536;2024-01-15T07:51:14;1.10;99.90
3816;DHT22;1923;48.154;11.536;2024-01-15T07:53:44;1.10;99.90
3816;DHT22;1923;48.154;11.536;2024-01-15T07:56:12;1.10;99.90
3816;DHT22;1923;48.154;11.536;2024-01-15T07:58:40;1.20;99.90
3816;DHT22;1923;48.154;11.536;2024-01-15T08:01:08;1.20;99.90
3816;DHT22;1923;48.154;11.536;2024-01-15T08:03:37;1.20;99.90
3816;DHT22;1923;48.154;11.536;2024-01-15T08:06:05;1.30;99.90
3816;DHT22;1923;48.154;11.536;2024-01-15T08:08:37;1.30;99.90
3816;DHT22;1923;48.154;11.536;2024-01-15T08:11:06;1.30;99.90
3816;DHT22;1923;48.154;11.536;2024-01-15T08:13:34;1.30;99.90
3816;DHT22;1923;48.154;11.536;2024-01-15T08:16:03;1.40;99.90
3816;DHT22;1923;48.154;11.536;2024-01-15T08:18:31;1.50;99.90
3816;DHT22;1923;48.154;11.536;2024-01-15T08:21:00;1.50;99.90
3816;DHT22;1923;48.154;11.536;2024-01-15T08:23:29;1.50;99.90
3816;DHT22;1923;48.154;11.536;2024-01-15T08:25:58;1.50;99.90
3816;DHT22;1923;48.154;11.536;2024-01-15T08:28:27;1.60;99.90
3816;DHT22;1923;48.154;11.536;2024-01-15T08:30:56;1.50;99.90
3816;DHT22;1923;48.154;11.536;2024-01-15T08:33:24;1.50;99.90
3816;DHT22;1923;48.154;11.536;2024-01-15T08:35:52;1.60;99.90
3816;DHT22;1923;48.154;11.536;2024-01-15T08:38:20;1.60;99.90
3816;DHT22;1923;48.154;11.536;2024-01-15T08:40:49;1.60;99.90
3816;DHT22;1923;48.154;11.536;2024-01-15T08:43:17;1.60;99.90
3816;DHT22;1923;48.154;11.536;2024-01-15T08:45:47;1.70;99.90
3816;DHT22;1923;48.154;11.536;2024-01-15T08:48:15;1.70;99.90
3816;DHT22;1923;48.154;11.536;2024-01-15T08:50:43;1.60;99.90
3816;DHT22;1923;48.154;11.536;2024-01-15T08:53:12;1.60;99.90
3816;DHT22;1923;48.154;11.536;2024-01-15T08:55:41;1.70;99.90
3816;DHT22;1923;48.154;11.536;2024-01-15T08:58:10;1.80;99.90
3816;DHT22;1923;48.154;11.536;2024-01-15T09:00:39;1.80;99.90
3816;DHT22;1923;48.154;11.536;2024-01-15T09:03:08;1.80;99.90
3816;DHT22;1923;48.154;11.536;2024-01-15T09:05:37;1.80;99.90
3816;DHT22;1923;48.154;11.536;2024-01-15T09:08:05;1.80;99.90
3816;DHT22;1923;48.154;11.536;2024-01-15T09:10:33;1.80;99.90
3816;DHT22;1923;48.154;11.536;2024-01-15T09:13:01;1.90;99.90
3816;DHT22;1923;48.154;11.536;2024-01-15T09:15:31;1.90;99.90
3816;DHT22;1923;48.154;11.536;2024-01-15T09:17:59;2.00;99.90
3816;DHT22;1923;48.154;11.536;2024-01-15T09:20:35;2.00;99.90
3816;DHT22;1923;48.154;11.536;2024-01-15T09:23:03;2.10;99.90
3816;DHT22;1923;48.154;11.536;2024-01-15T09:25:32;2.10;99.90
3816;DHT22;1923;48.154;11.536;2024-01-15T09:28:00;2.10;99.90
3816;DHT22;1923;48.154;11.536;2024-01-15T09:30:29;2.20;99.90
3816;DHT22;1923;48.154;11.536;2024-01-15T09:32:57;2.30;99.90
3816;DHT22;1923;48.154;11.536;2024-01-15T09:35:25;2.20;99.90
3816;DHT22;1923;48.154;11.536;2024-01-15T09:37:54;2.30;99.90
3816;DHT22;1923;48.154;11.536;2024-01-15T09:40:23;2.40;99.90
3816;DHT22;1923;48.154;11.536;2024-01-15T09:42:53;2.30;99.90
3816;DHT22;1923;48.154;11.536;2024-01-15T09:45:21;2.40;99.90
3816;DHT22;1923;48.154;11.536;2024-01-15T09:47:50;2.40;99.90
3816;DHT22;1923;48.154;11.536;2024-01-15T09:50:18;2.50;99.90
3816;DHT22;1923;48.154;11.536;2024-01-15T09:52:48;2.60;99.90
3816;DHT22;1923;48.154;11.536;2024-01-15T09:55:19;2.70;99.90
3816;DHT22;1923;48.154;11.536;2024-01-15T09:57:47;2.80;99.90
3816;DHT22;1923;48.154;11.536;2024-01-15T10:00:17;2.80;99.90
3816;DHT22;1923;48.154;11.536;2024-01-15T10:02:46;2.90;99.90
3816;DHT22;1923;48.154;11.536;2024-01-15T10:05:14;3.00;99.90
3816;DHT22;1923;48.154;11.536;2024-01-15T10:07:42;3.10;99.90
3816;DHT22;1923;48.154;11.536;2024-01-15T10:10:11;3.10;99.90
3816;DHT22;1923;48.154;11.536;2024-01-15T10:12:42;3.00;99.90
3816;DHT22;1923;48.154;11.536;2024-01-15T10:15:11;2.90;99.90
3816;DHT22;1923;48.154;11.536;2024-01-15T10:17:40;2.90;99.90
3816;DHT22;1923;48.154;11.536;2024-01-15T10:20:10;2.90;99.90
3816;DHT22;1923;48.154;11.536;2024-01-15T10:22:40;2.90;99.90
3816;DHT22;1923;48.154;11.536;2024-01-15T10:25:12;3.10;99.90
3816;DHT22;1923;48.154;11.536;2024-01-15T10:27:42;3.20;99.90
3816;DHT22;1923;48.154;11.536;2024-01-15T10:30:11;3.20;99.90
3816;DHT22;1923;48.154;11.536;2024-01-15T10:32:41;3.30;99.90
3816;DHT22;1923;48.154;11.536;2024-01-15T10:35:09;3.40;99.90
3816;DHT22;1923;48.154;11.536;2024-01-15T10:37:41;3.20;99.90
3816;DHT22;1923;48.154;11.536;2024-01-15T10:40:10;3.40;99.90
3816;DHT22;1923;48.154;11.536;2024-01-15T10:42:38;3.40;99.90
3816;DHT22;1923;48.154;11.536;2024-01-15T10:45:08;3.50;99.90
3816;DHT22;1923;48.154;11.536;2024-01-15T10:47:36;3.60;99.90
3816;DHT22;1923;48.154;11.536;2024-01-15T10:50:06;3.70;99.90
3816;DHT22;1923;48.154;11.536;2024-01-15T10:52:35;3.80;99.90
3816;DHT22;1923;48.154;11.536;2024-01-15T10:55:05;3.80;99.90
3816;DHT22;1923;48.154;11.536;2024-01-15T10:57:48;3.90;99.90
3816;DHT22;1923;48.154;11.536;2024-01-15T11:00:18;4.00;99.90
3816;DHT22;1923;48.154;11.536;2024-01-15T11:02:47;4.00;99.90
3816;DHT22;1923;48.154;11.536;2024-01-15T11:05:15;4.30;99.90
3816;DHT22;1923;48.154;11.536;2024-01-15T11:07:44;4.30;99.90
3816;DHT22;1923;48.154;11.536;2024-01-15T11:10:40;4.50;99.90
3816;DHT22;1923;48.154;11.536;2024-01-15T11:13:10;4.60;99.90
3816;DHT22;1923;48.154;11.536;2024-01-15T11:15:59;4.80;99.90
3816;DHT22;1923;48.154;11.536;2024-01-15T11:18:28;4.80;99.90
3816;DHT22;1923;48.154;11.536;2024-01-15T11:21:19;4.80;99.90
3816;DHT22;1923;48.154;11.536;2024-01-15T11:23:50;4.80;99.90
3816;DHT22;1923;48.154;11.536;2024-01-15T11:26:34;4.80;99.90
3816;DHT22;1923;48.154;11.536;2024-01-15T11:29:04;4.80;99.90
3816;DHT22;1923;48.154;11.536;2024-01-15T11:32:08;4.70;99.90
3816;DHT22;1923;48.154;11.536;2024-01-15T11:34:56;4.60;99.90
3816;DHT22;1923;48.154;11.536;2024-01-15T11:37:56;4.60;99.90
3816;DHT22;1923;48.154;11.536;2024-01-15T11:40:37;4.20;99.90
3816;DHT22;1923;48.154;11.536;2024-01-15T11:43:06;3.80;99.90
3816;DHT22;1923;48.154;11.536;2024-01-15T11:45:36;3.80;99.90
3816;DHT22;1923;48.154;11.536;2024-01-15T11:48:16;3.50;99.90
3816;DHT22;1923;48.154;11.536;2024-01-15T11:50:46;3.40;99.90
3816;DHT22;1923;48.154;11.536;2024-01-15T11:53:27;3.20;99.90
3816;DHT22;1923;48.154;11.536;2024-01-15T11:55:58;3.20;99.90
3816;DHT22;1923;48.154;11.536;2024-01-15T11:58:27;3.20;99.90
3816;DHT22;1923;48.154;11.536;2024-01-15T12:00:55;3.20;99.90
3816;DHT22;1923;48.154;11.536;2024-01-15T12:03:25;3.10;99.90
3816;DHT22;1923;48.154;11.536;2024-01-15T12:05:53;3.00;99.90
3816;DHT22;1923;48.154;11.536;2024-01-15T12:08:22;2.90;99.90
3816;DHT22;1923;48.154;11.536;2024-01-15T12:10:50;2.90;99.90
3816;DHT22;1923;48.154;11.536;2024-01-15T12:13:19;2.80;99.90
3816;DHT22;1923;48.154;11.536;2024-01-15T12:15:48;2.80;99.90
3816;DHT22;1923;48.154;11.536;2024-01-15T12:18:18;2.80;99.90
3816;DHT22;1923;48.154;11.536;2024-01-15T12:20:48;3.00;99.90
3816;DHT22;1923;48.154;11.536;2024-01-15T12:23:17;3.20;99.90
3816;DHT22;1923;48.154;11.536;2024-01-15T12:25:45;3.50;99.90
3816;DHT22;1923;48.154;11.536;2024-01-15T12:28:15;3.70;99.90
3816;DHT22;1923;48.154;11.536;2024-01-15T12:30:47;3.90;99.90
3816;DHT22;1923;48.154;11.536;2024-01-15T12:33:18;4.00;99.90
3816;DHT22;1923;48.154;11.536;2024-01-15T12:35:49;4.00;99.90
3816;DHT22;1923;48.154;11.536;2024-01-15T12:38:19;3.80;99.90
3816;DHT22;1923;48.154;11.536;2024-01-15T12:40:48;3.80;99.90
3816;DHT22;1923;48.154;11.536;2024-01-15T12:43:17;3.70;99.90
3816;DHT22;1923;48.154;11.536;2024-01-15T12:45:45;3.60;99.90
3816;DHT22;1923;48.154;11.536;2024-01-15T12:48:14;3.80;99.90
3816;DHT22;1923;48.154;11.536;2024-01-15T12:50:45;3.60;99.90
3816;DHT22;1923;48.154;11.536;2024-01-15T12:53:15;3.70;99.90
3816;DHT22;1923;48.154;11.536;2024-01-15T12:55:44;3.80;99.90
3816;DHT22;1923;48.154;11.536;2024-01-15T12:58:12;3.90;99.90
3816;DHT22;1923;48.154;11.536;2024-01-15T13:00:41;3.80;99.90
3816;DHT22;1923;48.154;11.536;2024-01-15T13:03:09;3.90;99.90
3816;DHT22;1923;48.154;11.536;2024-01-15T13:05:38;4.20;99.90
3816;DHT22;1923;48.154;11.536;2024-01-15T13:08:08;4.50;99.90
3816;DHT22;1923;48.154;11.536;2024-01-15T13:10:37;4.60;99.90
3816;DHT22;1923;48.154;11.536;2024-01-15T13:13:05;4.80;99.90
3816;DHT22;1923;48.154;11.536;2024-01-15T13:15:34;4.90;99.90
3816;DHT22;1923;48.154;11.536;2024-01-15T13:18:04;4.90;99.90
3816;DHT22;1923;48.154;11.536;2024-01-15T13:20:32;4.90;99.90
3816;DHT22;1923;48.154;11.536;2024-01-15T13:23:00;4.70;99.90
3816;DHT22;1923;48.154;11.536;2024-01-15T13:25:30;4.80;99.90
3816;DHT22;1923;48.154;11.536;2024-01-15T13:28:00;4.70;99.90
3816;DHT22;1923;48.154;11.536;2024-01-15T13:30:29;4.80;99.90
3816;DHT22;1923;48.154;11.536;2024-01-15T13:32:58;4.80;99.90
3816;DHT22;1923;48.154;11.536;2024-01-15T13:35:31;4.80;99.90
3816;DHT22;1923;48.154;11.536;2024-01-15T13:37:59;4.70;99.90
3816;DHT22;1923;48.154;11.536;2024-01-15T13:40:27;4.60;99.90
3816;DHT22;1923;48.154;11.536;2024-01-15T13:42:55;4.60;99.90
3816;DHT22;1923;48.154;11.536;2024-01-15T13:45:24;4.70;99.90
3816;DHT22;1923;48.154;11.536;2024-01-15T13:47:52;4.60;99.90
3816;DHT22;1923;48.154;11.536;2024-01-15T13:50:21;4.50;99.90
3816;DHT22;1923;48.154;11.536;2024-01-15T13:52:51;4.30;99.90
3816;DHT22;1923;48.154;11.536;2024-01-15T13:55:19;4.20;99.90
3816;DHT22;1923;48.154;11.536;2024-01-15T13:57:48;4.10;99.90
3816;DHT22;1923;48.154;11.536;2024-01-15T14:00:16;4.10;99.90
3816;DHT22;1923;48.154;11.536;2024-01-15T14:02:48;4.10;99.90
3816;DHT22;1923;48.154;11.536;2024-01-15T14:05:16;4.10;99.90
3816;DHT22;1923;48.154;11.536;2024-01-15T14:07:44;4.00;99.90
3816;DHT22;1923;48.154;11.536;2024-01-15T14:10:12;4.00;99.90
3816;DHT22;1923;48.154;11.536;2024-01-15T14:12:40;4.00;99.90
3816;DHT22;1923;48.154;11.536;2024-01-15T14:15:09;4.00;99.90
3816;DHT22;1923;48.154;11.536;2024-01-15T14:17:37;3.90;99.90
3816;DHT22;1923;48.154;11.536;2024-01-15T14:20:08;4.00;99.90
3816;DHT22;1923;48.154;11.536;2024-01-15T14:22:37;3.90;99.90
3816;DHT22;1923;48.154;11.536;2024-01-15T14:25:05;3.90;99.90
3816;DHT22;1923;48.154;11.536;2024-01-15T14:27:33;3.90;99.90
3816;DHT22;1923;48.154;11.536;2024-01-15T14:30:01;3.80;99.90
3816;DHT22;1923;48.154;11.536;2024-01-15T14:32:30;3.70;99.90
3816;DHT22;1923;48.154;11.536;2024-01-15T14:34:58;3.60;99.90
3816;DHT22;1923;48.154;11.536;2024-01-15T14:37:28;3.50;99.90
3816;DHT22;1923;48.154;11.536;2024-01-15T14:39:56;3.50;99.90
3816;DHT22;1923;48.154;11.536;2024-01-15T14:42:24;3.40;99.90
3816;DHT22;1923;48.154;11.536;2024-01-15T14:44:53;3.20;99.90
3816;DHT22;1923;48.154;11.536;2024-01-15T14:47:21;3.10;99.90
3816;DHT22;1923;48.154;11.536;2024-01-15T14:49:51;3.20;99.90
3816;DHT22;1923;48.154;11.536;2024-01-15T14:52:19;3.20;99.90
3816;DHT22;1923;48.154;11.536;2024-01-15T14:54:49;3.10;99.90
3816;DHT22;1923;48.154;11.536;2024-01-15T14:57:17;3.10;99.90
3816;DHT22;1923;48.154;11.536;2024-01-15T14:59:46;3.10;99.90
3816;DHT22;1923;48.154;11.536;2024-01-15T15:02:14;3.10;99.90
3816;DHT22;1923;48.154;11.536;2024-01-15T15:04:42;3.10;99.90
3816;DHT22;1923;48.154;11.536;2024-01-15T15:07:15;3.00;99.90
3816;DHT22;1923;48.154;11.536;2024-01-15T15:09:43;3.00;99.90
3816;DHT22;1923;48.154;11.536;2024-01-15T15:12:13;3.00;99.90
3816;DHT22;1923;48.154;11.536;2024-01-15T15:14:41;2.90;99.90
3816;DHT22;1923;48.154;11.536;2024-01-15T15:17:25;3.00;99.90
3816;DHT22;1923;48.154;11.536;2024-01-15T15:19:53;2.90;99.90
3816;DHT22;1923;48.154;11.536;2024-01-15T15:22:22;2.80;99.90
3816;DHT22;1923;48.154;11.536;2024-01-15T15:24:50;2.80;99.90
3816;DHT22;1923;48.154;11.536;2024-01-15T15:27:19;2.70;99.90
3816;DHT22;1923;48.154;11.536;2024-01-15T15:29:47;2.70;99.90
3816;DHT22;1923;48.154;11.536;2024-01-15T15:32:17;2.60;99.90
3816;DHT22;1923;48.154;11.536;2024-01-15T15:34:45;2.70;99.90
3816;DHT22;1923;48.154;11.536;2024-01-15T15:37:14;2.70;99.90
3816;DHT22;1923;48.154;11.536;2024-01-15T15:39:44;2.70;99.90
3816;DHT22;1923;48.154;11.536;2024-01-15T15:42:12;2.70;99.90
3816;DHT22;1923;48.154;11.536;2024-01-15T15:44:42;2.70;99.90
3816;DHT22;1923;48.154;11.536;2024-01-15T15:47:13;2.70;99.90
3816;DHT22;1923;48.154;11.536;2024-01-15T15:49:42;2.80;99.90
3816;DHT22;1923;48.154;11.536;2024-01-15T15:52:11;2.80;99.90
3816;DHT22;1923;48.154;11.536;2024-01-15T15:54:39;2.70;99.90
3816;DHT22;1923;48.154;11.536;2024-01-15T15:57:07;2.70;99.90
3816;DHT22;1923;48.154;11.536;2024-01-15T15:59:35;2.70;99.90
3816;DHT22;1923;48.154;11.536;2024-01-15T16:02:04;2.60;99.90
3816;DHT22;1923;48.154;11.536;2024-01-15T16:04:33;2.60;99.90
3816;DHT22;1923;48.154;11.536;2024-01-15T16:07:01;2.50;99.90
3816;DHT22;1923;48.154;11.536;2024-01-15T16:09:30;2.50;99.90
3816;DHT22;1923;48.154;11.536;2024-01-15T16:11:58;2.50;99.90